createdAt,value
2019-03-03T00:00:16.401Z,97378.06
2019-03-03T00:02:17.987Z,97374.03
2019-03-03T00:04:19.590Z,97368.61
2019-03-03T00:06:21.197Z,97364.86
2019-03-03T00:08:24.544Z,97372.08
2019-03-03T00:10:24.500Z,97369.61
2019-03-03T00:12:26.102Z,97368.42
2019-03-03T00:14:27.694Z,97366.78
2019-03-03T00:16:29.304Z,97369.81
2019-03-03T00:18:31.069Z,97363.41
2019-03-03T00:20:32.682Z,97358.32
2019-03-03T00:22:34.291Z,97352.27
2019-03-03T00:24:35.918Z,97353.55
2019-03-03T00:26:37.531Z,97350.45
2019-03-03T00:28:39.158Z,97360.60
2019-03-03T00:30:40.787Z,97363.12
2019-03-03T00:32:42.397Z,97367.73
2019-03-03T00:34:44.030Z,97363.12
2019-03-03T00:36:51.272Z,97364.84
2019-03-03T00:38:55.540Z,97327.73
2019-03-03T00:40:57.166Z,97358.46
2019-03-03T00:43:17.446Z,97359.81
2019-03-03T00:45:33.954Z,97320.91
2019-03-03T00:47:37.300Z,97360.12
2019-03-03T00:49:41.446Z,97356.61
2019-03-03T00:51:44.932Z,97349.39
2019-03-03T00:53:52.250Z,97347.25
2019-03-03T00:55:58.345Z,97347.20
2019-03-03T00:58:03.384Z,97350.69
2019-03-03T01:00:07.633Z,97336.55
2019-03-03T01:02:11.744Z,97344.23
2019-03-03T01:04:13.337Z,97333.94
2019-03-03T01:06:14.965Z,97336.17
2019-03-03T01:08:24.117Z,97334.47
2019-03-03T01:10:26.309Z,97332.41
2019-03-03T01:12:28.554Z,97327.33
2019-03-03T01:14:31.007Z,97326.55
2019-03-03T01:16:35.392Z,97325.73
2019-03-03T01:18:42.584Z,97324.95
2019-03-03T01:20:46.591Z,97319.00
2019-03-03T01:22:53.992Z,97311.11
2019-03-03T01:24:56.141Z,97328.22
2019-03-03T01:26:57.756Z,97322.89
2019-03-03T01:28:59.373Z,97328.12
2019-03-03T01:31:00.966Z,97322.56
2019-03-03T01:33:02.589Z,97314.38
2019-03-03T01:35:04.213Z,97310.53
2019-03-03T01:37:05.822Z,97306.09
2019-03-03T01:39:07.448Z,97302.91
2019-03-03T01:41:09.049Z,97299.06
2019-03-03T01:43:10.678Z,97303.23
2019-03-03T01:45:12.270Z,97299.38
2019-03-03T01:47:13.883Z,97302.44
2019-03-03T01:49:15.477Z,97296.92
2019-03-03T01:51:17.082Z,97290.02
2019-03-03T01:53:18.709Z,97297.23
2019-03-03T01:55:20.320Z,97297.63
2019-03-03T01:57:21.914Z,97295.20
2019-03-03T01:59:23.506Z,97290.28
2019-03-03T02:01:25.111Z,97286.21
2019-03-03T02:03:26.745Z,97286.74
2019-03-03T02:05:28.350Z,97290.20
2019-03-03T02:07:29.947Z,97290.27
2019-03-03T02:09:31.541Z,97290.73
2019-03-03T02:11:33.200Z,97293.37
2019-03-03T02:13:34.793Z,97298.09
2019-03-03T02:15:36.431Z,97293.83
2019-03-03T02:17:38.026Z,97294.27
2019-03-03T02:19:39.653Z,97290.06
2019-03-03T02:21:41.250Z,97292.12
2019-03-03T02:23:42.890Z,97290.05
2019-03-03T02:25:44.521Z,97287.87
2019-03-03T02:27:46.128Z,97281.95
2019-03-03T02:29:47.763Z,97285.73
2019-03-03T02:31:49.378Z,97286.16
2019-03-03T02:33:50.979Z,97284.45
2019-03-03T02:35:52.575Z,97273.86
2019-03-03T02:37:54.169Z,97269.58
2019-03-03T02:39:55.795Z,97270.06
2019-03-03T02:41:57.387Z,97267.46
2019-03-03T02:43:59.024Z,97270.38
2019-03-03T02:46:00.621Z,97265.32
2019-03-03T02:48:02.222Z,97273.33
2019-03-03T02:50:03.846Z,97266.41
2019-03-03T02:52:05.456Z,97270.58
2019-03-03T02:54:07.064Z,97267.02
2019-03-03T02:56:08.662Z,97268.53
2019-03-03T02:58:10.268Z,97265.80
2019-03-03T03:00:11.904Z,97267.45
2019-03-03T03:02:13.503Z,97258.70
2019-03-03T03:04:15.100Z,97261.94
2019-03-03T03:06:16.746Z,97261.84
2019-03-03T03:08:19.144Z,97260.14
2019-03-03T03:10:26.381Z,97257.75
2019-03-03T03:12:27.979Z,97262.11
2019-03-03T03:14:30.444Z,97262.02
2019-03-03T03:16:34.561Z,97254.70
2019-03-03T03:18:39.152Z,97251.34
2019-03-03T03:20:50.682Z,97256.06
2019-03-03T03:22:52.315Z,97221.12
2019-03-03T03:24:59.475Z,97257.48
2019-03-03T03:27:07.600Z,97253.30
2019-03-03T03:29:14.814Z,97256.30
2019-03-03T03:31:26.379Z,97249.98
2019-03-03T03:33:31.679Z,97248.84
2019-03-03T03:35:50.101Z,97247.73
2019-03-03T03:37:51.743Z,97247.52
2019-03-03T03:40:09.125Z,97250.13
2019-03-03T03:42:10.741Z,97248.10
2019-03-03T03:44:16.295Z,97249.03
2019-03-03T03:46:22.593Z,97248.70
2019-03-03T03:48:26.875Z,97164.84
2019-03-03T03:50:34.219Z,97242.41
2019-03-03T03:52:39.319Z,97242.85
2019-03-03T03:54:40.919Z,97243.73
2019-03-03T03:56:42.554Z,97246.73
2019-03-03T03:58:45.722Z,97239.63
2019-03-03T04:00:47.324Z,97248.02
2019-03-03T04:02:50.906Z,97246.94
2019-03-03T04:04:52.556Z,97243.10
2019-03-03T04:06:58.869Z,97243.10
2019-03-03T04:09:06.459Z,97238.08
2019-03-03T04:11:10.517Z,97242.13
2019-03-03T04:13:12.784Z,97238.66
2019-03-03T04:15:14.979Z,97243.80
2019-03-03T04:17:20.615Z,97239.53
2019-03-03T04:19:22.223Z,97236.45
2019-03-03T04:21:29.699Z,97238.49
2019-03-03T04:23:36.853Z,97237.17
2019-03-03T04:25:41.238Z,97233.67
2019-03-03T04:27:44.726Z,97225.02
2019-03-03T04:30:00.327Z,97223.66
2019-03-03T04:32:16.607Z,97219.78
2019-03-03T04:34:18.191Z,97221.42
2019-03-03T04:36:22.337Z,97217.96
2019-03-03T04:38:29.737Z,97218.00
2019-03-03T04:40:42.126Z,97220.52
2019-03-03T04:42:48.688Z,97220.17
2019-03-03T04:44:53.945Z,97220.17
2019-03-03T04:46:58.217Z,97219.84
2019-03-03T04:49:14.695Z,97216.92
2019-03-03T04:51:17.079Z,97215.77
2019-03-03T04:53:28.594Z,97211.09
2019-03-03T04:55:33.822Z,97210.64
2019-03-03T04:57:41.005Z,97209.05
2019-03-03T04:59:44.340Z,97212.91
2019-03-03T05:01:56.617Z,97205.11
2019-03-03T05:03:58.267Z,97204.15
2019-03-03T05:06:16.632Z,97204.81
2019-03-03T05:08:18.343Z,97200.84
2019-03-03T05:10:20.564Z,97203.64
2019-03-03T05:12:38.894Z,97197.78
2019-03-03T05:14:40.489Z,97203.34
2019-03-03T05:16:42.130Z,97205.65
2019-03-03T05:18:43.730Z,97202.17
2019-03-03T05:20:45.325Z,97205.90
2019-03-03T05:22:46.909Z,97200.44
2019-03-03T05:24:48.493Z,97205.67
2019-03-03T05:26:50.118Z,97203.11
2019-03-03T05:28:51.724Z,97195.46
2019-03-03T05:30:53.332Z,97202.04
2019-03-03T05:32:54.926Z,97204.27
2019-03-03T05:34:56.533Z,97206.44
2019-03-03T05:36:58.181Z,97202.06
2019-03-03T05:38:59.841Z,97199.46
2019-03-03T05:41:01.484Z,97203.59
2019-03-03T05:43:03.077Z,97202.55
2019-03-03T05:45:04.673Z,97192.67
2019-03-03T05:47:06.285Z,97185.30
2019-03-03T05:49:07.910Z,97189.41
2019-03-03T05:51:09.517Z,97195.15
2019-03-03T05:53:11.115Z,97188.80
2019-03-03T05:55:12.710Z,97186.33
2019-03-03T05:57:14.315Z,97180.58
2019-03-03T05:59:15.959Z,97185.16
2019-03-03T06:01:17.544Z,97189.41
2019-03-03T06:03:19.138Z,97188.92
2019-03-03T06:05:20.738Z,97190.16
2019-03-03T06:07:22.334Z,97193.65
2019-03-03T06:09:23.958Z,97191.58
2019-03-03T06:11:25.582Z,97183.55
2019-03-03T06:13:27.197Z,97184.83
2019-03-03T06:15:28.825Z,97187.39
2019-03-03T06:17:30.428Z,97186.63
2019-03-03T06:19:32.012Z,97176.94
2019-03-03T06:21:33.637Z,97181.78
2019-03-03T06:23:35.246Z,97178.90
2019-03-03T06:25:36.883Z,97178.00
2019-03-03T06:27:38.495Z,97181.58
2019-03-03T06:29:40.105Z,97180.58
2019-03-03T06:31:41.712Z,97179.55
2019-03-03T06:33:43.310Z,97177.23
2019-03-03T06:35:44.905Z,97177.41
2019-03-03T06:37:46.502Z,97179.68
2019-03-03T06:39:48.098Z,97176.80
2019-03-03T06:41:49.680Z,97174.31
2019-03-03T06:43:51.280Z,97172.62
2019-03-03T06:45:52.924Z,97173.89
2019-03-03T06:47:54.517Z,97175.52
2019-03-03T06:49:56.112Z,97162.20
2019-03-03T06:51:57.720Z,97169.43
2019-03-03T06:53:59.318Z,97158.14
2019-03-03T06:56:00.953Z,97169.46
2019-03-03T06:58:02.577Z,97174.84
2019-03-03T07:00:04.185Z,97166.20
2019-03-03T07:02:05.795Z,97175.41
2019-03-03T07:04:07.398Z,97177.00
2019-03-03T07:06:09.044Z,97174.42
2019-03-03T07:08:10.688Z,97170.23
2019-03-03T07:10:12.282Z,97172.18
2019-03-03T07:12:13.935Z,97173.67
2019-03-03T07:14:15.529Z,97182.42
2019-03-03T07:16:17.111Z,97182.23
2019-03-03T07:18:18.705Z,97183.19
2019-03-03T07:20:20.315Z,97161.95
2019-03-03T07:22:21.958Z,97173.99
2019-03-03T07:24:23.552Z,97179.43
2019-03-03T07:26:25.146Z,97184.75
2019-03-03T07:28:26.843Z,97175.61
2019-03-03T07:30:28.737Z,97170.67
2019-03-03T07:32:30.379Z,97172.16
2019-03-03T07:34:31.988Z,97181.12
2019-03-03T07:36:33.590Z,97187.71
2019-03-03T07:38:35.217Z,97155.91
2019-03-03T07:40:36.809Z,97189.45
2019-03-03T07:42:38.419Z,97181.66
2019-03-03T07:44:39.999Z,97182.15
2019-03-03T07:46:41.595Z,97188.77
2019-03-03T07:48:43.235Z,97188.23
2019-03-03T07:50:44.831Z,97190.81
2019-03-03T07:52:46.424Z,97184.94
2019-03-03T07:54:48.018Z,97187.55
2019-03-03T07:56:49.617Z,97182.44
2019-03-03T07:58:51.213Z,97185.12
2019-03-03T08:00:52.820Z,97184.00
2019-03-03T08:02:54.418Z,97188.03
2019-03-03T08:04:56.014Z,97191.58
2019-03-03T08:06:57.607Z,97189.12
2019-03-03T08:08:59.188Z,97196.03
2019-03-03T08:11:00.826Z,97195.73
2019-03-03T08:13:09.255Z,97191.47
2019-03-03T08:15:04.134Z,97182.10
2019-03-03T08:17:05.733Z,97138.82
2019-03-03T08:19:07.316Z,97178.04
2019-03-03T08:21:08.956Z,97176.02
2019-03-03T08:23:10.557Z,97167.70
2019-03-03T08:25:12.185Z,97175.23
2019-03-03T08:27:13.779Z,97176.98
2019-03-03T08:29:15.377Z,97169.60
2019-03-03T08:31:16.991Z,97168.03
2019-03-03T08:33:18.590Z,97171.84
2019-03-03T08:35:20.204Z,97174.56
2019-03-03T08:37:21.811Z,97181.31
2019-03-03T08:39:23.409Z,97182.81
2019-03-03T08:41:25.076Z,97172.09
2019-03-03T08:43:27.141Z,97171.30
2019-03-03T08:45:31.554Z,97160.23
2019-03-03T08:47:33.146Z,97162.77
2019-03-03T08:49:36.156Z,97172.46
2019-03-03T08:51:42.398Z,97174.08
2019-03-03T08:53:58.898Z,97167.91
2019-03-03T08:56:21.481Z,97158.70
2019-03-03T08:58:39.833Z,97151.64
2019-03-03T09:00:48.042Z,97139.88
2019-03-03T09:02:50.150Z,97146.02
2019-03-03T09:05:07.456Z,97148.30
2019-03-03T09:07:09.064Z,97142.55
2019-03-03T09:09:16.461Z,97134.33
2019-03-03T09:11:36.662Z,97136.50
2019-03-03T09:13:39.222Z,97139.89
2019-03-03T09:15:41.329Z,97144.78
2019-03-03T09:17:48.571Z,97137.64
2019-03-03T09:19:52.968Z,97135.53
2019-03-03T09:21:56.298Z,97139.45
2019-03-03T09:24:00.684Z,97140.34
2019-03-03T09:26:17.153Z,97136.47
2019-03-03T09:28:37.589Z,97136.97
2019-03-03T09:30:42.653Z,97154.30
2019-03-03T09:32:49.978Z,97145.30
2019-03-03T09:35:07.166Z,97148.89
2019-03-03T09:37:09.628Z,97141.69
2019-03-03T09:39:29.906Z,97151.00
2019-03-03T09:41:44.282Z,97145.73
2019-03-03T09:43:59.620Z,97149.02
2019-03-03T09:46:02.024Z,97146.42
2019-03-03T09:48:05.496Z,97148.84
2019-03-03T09:50:08.611Z,97145.22
2019-03-03T09:52:15.852Z,97149.20
2019-03-03T09:54:19.210Z,97146.88
2019-03-03T09:56:25.506Z,97144.11
2019-03-03T09:58:29.622Z,97149.38
2019-03-03T10:00:41.958Z,97143.10
2019-03-03T10:02:55.282Z,97143.70
2019-03-03T10:05:11.786Z,97142.56
2019-03-03T10:07:19.073Z,97150.23
2019-03-03T10:09:32.487Z,97148.09
2019-03-03T10:11:34.813Z,97146.66
2019-03-03T10:13:36.462Z,97142.72
2019-03-03T10:15:47.977Z,97152.80
2019-03-03T10:18:05.413Z,97148.42
2019-03-03T10:20:20.746Z,97143.95
2019-03-03T10:22:28.288Z,97143.30
2019-03-03T10:24:33.377Z,97141.42
2019-03-03T10:26:49.872Z,97136.56
2019-03-03T10:29:06.411Z,97130.22
2019-03-03T10:31:12.878Z,97134.08
2019-03-03T10:33:24.389Z,97130.38
2019-03-03T10:35:43.693Z,97131.23
2019-03-03T10:37:46.844Z,97134.44
2019-03-03T10:39:50.247Z,97128.06
2019-03-03T10:41:54.338Z,97128.96
2019-03-03T10:43:56.692Z,97129.34
2019-03-03T10:46:03.946Z,97126.02
2019-03-03T10:48:11.005Z,97129.45
2019-03-03T10:50:27.518Z,97128.94
2019-03-03T10:52:33.688Z,97128.39
2019-03-03T10:54:39.776Z,97130.29
2019-03-03T10:56:58.237Z,97126.80
2019-03-03T10:59:02.612Z,97120.35
2019-03-03T11:01:05.807Z,97114.70
2019-03-03T11:03:09.453Z,97119.34
2019-03-03T11:05:29.751Z,97125.19
2019-03-03T11:07:31.345Z,97117.47
2019-03-03T11:09:32.932Z,97074.87
2019-03-03T11:11:49.396Z,97119.91
2019-03-03T11:13:54.869Z,97107.03
2019-03-03T11:16:13.122Z,97092.94
2019-03-03T11:18:15.075Z,97084.20
2019-03-03T11:20:27.534Z,97087.17
2019-03-03T11:22:29.125Z,97091.88
2019-03-03T11:24:46.713Z,97078.30
2019-03-03T11:26:50.175Z,97077.98
2019-03-03T11:28:54.309Z,97092.00
2019-03-03T11:30:58.802Z,97075.73
2019-03-03T11:33:05.958Z,97065.71
2019-03-03T11:35:23.252Z,97065.63
2019-03-03T11:37:41.636Z,97065.11
2019-03-03T11:39:56.129Z,97058.86
2019-03-03T11:41:58.649Z,97067.58
2019-03-03T11:44:02.966Z,97066.11
2019-03-03T11:46:10.383Z,97064.09
2019-03-03T11:48:16.429Z,97060.92
2019-03-03T11:50:22.692Z,97065.95
2019-03-03T11:52:28.860Z,97058.58
2019-03-03T11:54:31.111Z,97054.98
2019-03-03T11:56:47.600Z,97063.22
2019-03-03T11:58:49.719Z,97067.58
2019-03-03T12:01:01.244Z,97053.07
2019-03-03T12:03:08.571Z,97056.11
2019-03-03T12:05:15.824Z,97053.73
2019-03-03T12:07:34.144Z,97062.34
2019-03-03T12:09:51.400Z,97053.06
2019-03-03T12:11:54.780Z,97050.28
2019-03-03T12:13:56.374Z,97057.02
2019-03-03T12:16:18.681Z,97061.69
2019-03-03T12:18:37.056Z,97053.70
2019-03-03T12:20:54.353Z,97065.10
2019-03-03T12:23:17.258Z,97064.19
2019-03-03T12:25:21.785Z,97059.03
2019-03-03T12:27:40.064Z,97053.14
2019-03-03T12:29:42.576Z,97044.06
2019-03-03T12:31:44.825Z,97061.37
2019-03-03T12:33:47.207Z,97057.05
2019-03-03T12:35:52.712Z,97054.70
2019-03-03T12:37:57.996Z,97054.74
2019-03-03T12:40:09.505Z,97061.95
2019-03-03T12:42:16.814Z,97047.31
2019-03-03T12:44:19.155Z,97044.58
2019-03-03T12:46:22.670Z,97043.48
2019-03-03T12:48:40.891Z,97040.45
2019-03-03T12:50:48.291Z,97036.03
2019-03-03T12:52:53.520Z,97028.07
2019-03-03T12:54:57.624Z,97022.95
2019-03-03T12:56:59.265Z,97014.39
2019-03-03T12:59:05.572Z,97009.28
2019-03-03T13:01:26.085Z,97007.66
2019-03-03T13:03:30.661Z,97001.75
2019-03-03T13:05:49.080Z,96994.39
2019-03-03T13:07:56.216Z,96983.56
2019-03-03T13:09:58.871Z,96983.59
2019-03-03T13:12:02.332Z,96982.08
2019-03-03T13:14:06.404Z,96982.96
2019-03-03T13:16:24.810Z,96983.05
2019-03-03T13:18:28.985Z,96987.81
2019-03-03T13:20:31.492Z,96984.50
2019-03-03T13:22:48.055Z,96985.55
2019-03-03T13:24:49.669Z,96974.21
2019-03-03T13:26:51.785Z,96974.39
2019-03-03T13:28:55.430Z,96970.12
2019-03-03T13:30:57.970Z,96970.12
2019-03-03T13:33:02.384Z,96967.09
2019-03-03T13:35:05.786Z,96961.53
2019-03-03T13:37:07.612Z,96948.81
2019-03-03T13:39:26.072Z,96948.01
2019-03-03T13:41:28.921Z,96950.54
2019-03-03T13:43:30.519Z,96951.35
2019-03-03T13:45:32.114Z,96953.80
2019-03-03T13:47:33.741Z,96955.97
2019-03-03T13:49:35.353Z,96949.97
2019-03-03T13:51:36.946Z,96956.80
2019-03-03T13:53:38.560Z,96949.39
2019-03-03T13:55:40.161Z,96943.75
2019-03-03T13:57:41.785Z,96948.77
2019-03-03T13:59:43.382Z,96945.67
2019-03-03T14:01:44.963Z,96934.64
2019-03-03T14:03:46.579Z,96943.47
2019-03-03T14:05:48.182Z,96944.58
2019-03-03T14:07:49.823Z,96949.38
2019-03-03T14:09:51.419Z,96952.35
2019-03-03T14:11:53.031Z,96949.89
2019-03-03T14:13:54.625Z,96952.03
2019-03-03T14:15:56.226Z,96951.89
2019-03-03T14:17:58.139Z,96953.14
2019-03-03T14:19:59.477Z,96953.50
2019-03-03T14:22:01.091Z,96944.03
2019-03-03T14:24:02.776Z,96939.30
2019-03-03T14:26:04.370Z,96941.41
2019-03-03T14:28:05.984Z,96937.41
2019-03-03T14:30:07.579Z,96932.19
2019-03-03T14:32:09.160Z,96925.77
2019-03-03T14:34:10.755Z,96926.81
2019-03-03T14:36:12.354Z,96928.87
2019-03-03T14:38:13.967Z,96929.71
2019-03-03T14:40:15.576Z,96933.94
2019-03-03T14:42:17.201Z,96927.89
2019-03-03T14:44:18.801Z,96935.97
2019-03-03T14:46:20.385Z,96931.70
2019-03-03T14:48:21.997Z,96926.16
2019-03-03T14:50:23.614Z,96932.56
2019-03-03T14:52:25.228Z,96924.16
2019-03-03T14:54:26.836Z,96921.09
2019-03-03T14:56:28.433Z,96923.63
2019-03-03T14:58:30.024Z,96903.73
2019-03-03T15:00:31.620Z,96929.16
2019-03-03T15:02:33.246Z,96934.05
2019-03-03T15:04:34.842Z,96926.99
2019-03-03T15:06:36.444Z,96928.38
2019-03-03T15:08:38.042Z,96916.92
2019-03-03T15:10:39.670Z,96926.73
2019-03-03T15:12:41.330Z,96918.67
2019-03-03T15:14:42.912Z,96922.09
2019-03-03T15:16:44.507Z,96919.95
2019-03-03T15:18:46.732Z,96918.14
2019-03-03T15:20:48.327Z,96915.28
2019-03-03T15:22:49.943Z,96925.97
2019-03-03T15:24:51.537Z,96914.20
2019-03-03T15:26:53.156Z,96923.33
2019-03-03T15:28:54.760Z,96913.61
2019-03-03T15:30:56.441Z,96923.28
2019-03-03T15:32:58.070Z,96916.20
2019-03-03T15:34:59.719Z,96916.41
2019-03-03T15:37:01.376Z,96922.50
2019-03-03T15:39:02.983Z,96921.08
2019-03-03T15:41:04.628Z,96915.94
2019-03-03T15:43:06.243Z,96907.38
2019-03-03T15:45:07.949Z,96908.86
2019-03-03T15:47:09.577Z,96899.99
2019-03-03T15:49:11.169Z,96897.89
2019-03-03T15:51:12.752Z,96902.08
2019-03-03T15:53:14.612Z,96887.47
2019-03-03T15:55:16.208Z,96897.77
2019-03-03T15:57:17.831Z,96893.51
2019-03-03T15:59:20.469Z,96887.20
2019-03-03T16:01:22.192Z,96891.90
2019-03-03T16:03:23.952Z,96886.55
2019-03-03T16:05:26.078Z,96893.43
2019-03-03T16:07:27.690Z,96893.53
2019-03-03T16:09:29.312Z,96890.05
2019-03-03T16:11:30.896Z,96885.75
2019-03-03T16:13:32.490Z,96883.34
2019-03-03T16:15:34.095Z,96882.30
2019-03-03T16:17:35.700Z,96875.41
2019-03-03T16:19:37.452Z,96874.31
2019-03-03T16:21:39.080Z,96874.01
2019-03-03T16:23:40.708Z,96876.64
2019-03-03T16:25:42.302Z,96866.89
2019-03-03T16:27:43.913Z,96873.21
2019-03-03T16:29:45.553Z,96870.00
2019-03-03T16:31:47.248Z,96873.19
2019-03-03T16:33:48.936Z,96868.59
2019-03-03T16:35:50.530Z,96864.77
2019-03-03T16:37:52.133Z,96870.30
2019-03-03T16:39:53.772Z,96863.02
2019-03-03T16:41:55.435Z,96861.34
2019-03-03T16:43:57.055Z,96859.33
2019-03-03T16:45:58.665Z,96863.07
2019-03-03T16:48:00.279Z,96857.53
2019-03-03T16:50:01.926Z,96857.14
2019-03-03T16:52:03.531Z,96856.11
2019-03-03T16:54:05.138Z,96863.62
2019-03-03T16:56:06.744Z,96864.52
2019-03-03T16:58:08.356Z,96863.99
2019-03-03T17:00:09.998Z,96859.34
2019-03-03T17:02:11.597Z,96858.55
2019-03-03T17:04:13.205Z,96859.49
2019-03-03T17:06:14.825Z,96857.88
2019-03-03T17:08:16.425Z,96859.73
2019-03-03T17:10:18.041Z,96854.83
2019-03-03T17:12:19.699Z,96866.21
2019-03-03T17:14:21.307Z,96858.66
2019-03-03T17:16:22.925Z,96859.57
2019-03-03T17:18:24.521Z,96855.58
2019-03-03T17:20:26.137Z,96854.87
2019-03-03T17:22:27.912Z,96854.01
2019-03-03T17:24:29.524Z,96853.17
2019-03-03T17:26:31.127Z,96851.33
2019-03-03T17:28:32.741Z,96857.39
2019-03-03T17:30:34.328Z,96847.52
2019-03-03T17:32:35.926Z,96844.08
2019-03-03T17:34:37.570Z,96848.25
2019-03-03T17:36:39.165Z,96851.52
2019-03-03T17:38:40.767Z,96851.60
2019-03-03T17:40:42.361Z,96849.24
2019-03-03T17:42:43.994Z,96849.25
2019-03-03T17:44:45.638Z,96843.78
2019-03-03T17:46:47.228Z,96848.06
2019-03-03T17:48:48.822Z,96854.06
2019-03-03T17:50:50.407Z,96807.36
2019-03-03T17:52:52.001Z,96839.58
2019-03-03T17:54:53.613Z,96836.28
2019-03-03T17:56:55.233Z,96835.45
2019-03-03T17:58:56.828Z,96839.78
2019-03-03T18:00:58.479Z,96840.70
2019-03-03T18:03:00.131Z,96812.88
2019-03-03T18:05:01.744Z,96846.34
2019-03-03T18:07:03.393Z,96798.28
2019-03-03T18:09:05.032Z,96833.64
2019-03-03T18:11:06.671Z,96831.15
2019-03-03T18:13:08.284Z,96831.31
2019-03-03T18:15:09.872Z,96824.66
2019-03-03T18:17:11.519Z,96827.59
2019-03-03T18:19:13.214Z,96824.62
2019-03-03T18:21:15.032Z,96832.11
2019-03-03T18:23:16.649Z,96827.83
2019-03-03T18:25:18.287Z,96828.25
2019-03-03T18:27:19.892Z,96828.69
2019-03-03T18:29:21.503Z,96828.11
2019-03-03T18:31:23.112Z,96829.15
2019-03-03T18:33:24.735Z,96825.60
2019-03-03T18:35:26.376Z,96821.73
2019-03-03T18:37:27.988Z,96828.80
2019-03-03T18:39:29.595Z,96824.27
2019-03-03T18:41:31.455Z,96825.77
2019-03-03T18:43:33.096Z,96826.69
2019-03-03T18:45:34.722Z,96825.21
2019-03-03T18:47:36.418Z,96813.39
2019-03-03T18:49:38.019Z,96811.41
2019-03-03T18:51:39.633Z,96813.80
2019-03-03T18:53:41.296Z,96819.05
2019-03-03T18:55:42.889Z,96814.13
2019-03-03T18:57:44.491Z,96807.20
2019-03-03T18:59:46.090Z,96806.34
2019-03-03T19:01:47.714Z,96805.30
2019-03-03T19:03:49.324Z,96808.16
2019-03-03T19:05:55.665Z,96810.53
2019-03-03T19:07:53.626Z,96814.59
2019-03-03T19:09:55.270Z,96818.68
2019-03-03T19:11:56.867Z,96823.20
2019-03-03T19:13:58.651Z,96821.38
2019-03-03T19:16:00.554Z,96820.82
2019-03-03T19:18:02.264Z,96823.80
2019-03-03T19:20:03.906Z,96814.34
2019-03-03T19:22:05.530Z,96816.01
2019-03-03T19:24:07.150Z,96816.31
2019-03-03T19:26:08.746Z,96813.84
2019-03-03T19:28:10.328Z,96808.94
2019-03-03T19:30:11.968Z,96791.52
2019-03-03T19:32:13.576Z,96808.92
2019-03-03T19:34:15.213Z,96808.41
2019-03-03T19:36:16.814Z,96796.19
2019-03-03T19:38:18.415Z,96811.53
2019-03-03T19:40:20.050Z,96800.85
2019-03-03T19:42:21.642Z,96799.27
2019-03-03T19:44:23.246Z,96794.66
2019-03-03T19:46:24.842Z,96791.01
2019-03-03T19:48:26.470Z,96789.48
2019-03-03T19:50:28.062Z,96778.88
2019-03-03T19:52:29.676Z,96778.19
2019-03-03T19:54:32.054Z,96776.09
2019-03-03T19:56:33.738Z,96735.57
2019-03-03T19:58:35.334Z,96779.30
2019-03-03T20:00:38.905Z,96777.13
2019-03-03T20:02:38.593Z,96775.23
2019-03-03T20:04:41.229Z,96771.72
2019-03-03T20:06:42.835Z,96775.62
2019-03-03T20:08:44.432Z,96766.80
2019-03-03T20:10:46.040Z,96767.93
2019-03-03T20:12:47.640Z,96761.11
2019-03-03T20:14:49.252Z,96757.58
2019-03-03T20:16:50.900Z,96748.11
2019-03-03T20:18:52.495Z,96739.50
2019-03-03T20:20:54.093Z,96743.93
2019-03-03T20:22:55.847Z,96742.80
2019-03-03T20:24:57.780Z,96736.00
2019-03-03T20:26:59.547Z,96726.81
2019-03-03T20:29:01.250Z,96716.87
2019-03-03T20:31:02.860Z,96730.80
2019-03-03T20:33:04.444Z,96729.39
2019-03-03T20:35:06.085Z,96729.28
2019-03-03T20:37:07.692Z,96725.85
2019-03-03T20:39:09.326Z,96733.83
2019-03-03T20:41:10.935Z,96728.83
2019-03-03T20:43:12.546Z,96719.92
2019-03-03T20:45:14.185Z,96721.98
2019-03-03T20:47:15.782Z,96720.45
2019-03-03T20:49:17.368Z,96713.05
2019-03-03T20:51:18.966Z,96685.13
2019-03-03T20:53:20.561Z,96712.38
2019-03-03T20:55:22.203Z,96716.06
2019-03-03T20:57:23.790Z,96715.33
2019-03-03T20:59:25.444Z,96716.49
2019-03-03T21:01:27.212Z,96707.47
2019-03-03T21:03:28.979Z,96707.17
2019-03-03T21:05:31.058Z,96703.92
2019-03-03T21:07:32.668Z,96712.09
2019-03-03T21:09:34.252Z,96701.27
2019-03-03T21:11:35.869Z,96701.13
2019-03-03T21:13:37.484Z,96700.56
2019-03-03T21:15:39.097Z,96663.30
2019-03-03T21:17:40.712Z,96700.34
2019-03-03T21:19:42.344Z,96719.40
2019-03-03T21:21:43.953Z,96701.64
2019-03-03T21:23:45.558Z,96693.39
2019-03-03T21:25:47.153Z,96694.84
2019-03-03T21:27:48.755Z,96677.80
2019-03-03T21:29:50.382Z,96678.14
2019-03-03T21:31:51.968Z,96678.88
2019-03-03T21:33:53.621Z,96666.19
2019-03-03T21:35:55.228Z,96663.14
2019-03-03T21:37:58.901Z,96623.70
2019-03-03T21:39:58.914Z,96665.49
2019-03-03T21:42:00.662Z,96670.54
2019-03-03T21:44:02.342Z,96659.41
2019-03-03T21:46:03.954Z,96661.08
2019-03-03T21:48:05.561Z,96653.98
2019-03-03T21:50:07.185Z,96652.47
2019-03-03T21:52:08.784Z,96642.67
2019-03-03T21:54:10.386Z,96637.80
2019-03-03T21:56:11.996Z,96643.09
2019-03-03T21:58:13.608Z,96632.31
2019-03-03T22:00:15.256Z,96633.83
2019-03-03T22:02:16.864Z,96629.95
2019-03-03T22:04:18.477Z,96621.44
2019-03-03T22:06:20.087Z,96625.83
2019-03-03T22:08:21.686Z,96621.28
2019-03-03T22:10:29.093Z,96615.51
2019-03-03T22:12:30.676Z,96606.28
2019-03-03T22:14:32.316Z,96611.14
2019-03-03T22:16:33.914Z,96601.91
2019-03-03T22:18:35.524Z,96604.94
2019-03-03T22:20:37.150Z,96603.84
2019-03-03T22:22:38.756Z,96601.86
2019-03-03T22:24:40.385Z,96602.31
2019-03-03T22:26:41.996Z,96601.00
2019-03-03T22:28:43.583Z,96598.25
2019-03-03T22:30:45.229Z,96597.86
2019-03-03T22:32:47.414Z,96593.98
2019-03-03T22:34:49.037Z,96595.89
2019-03-03T22:36:50.634Z,96594.50
2019-03-03T22:38:52.229Z,96588.86
2019-03-03T22:40:53.836Z,96591.45
2019-03-03T22:42:55.447Z,96589.49
2019-03-03T22:44:57.077Z,96588.50
2019-03-03T22:46:58.682Z,96584.98
2019-03-03T22:49:00.290Z,96583.77
2019-03-03T22:51:01.904Z,96586.33
2019-03-03T22:53:03.503Z,96580.61
2019-03-03T22:55:05.099Z,96575.44
2019-03-03T22:57:06.697Z,96577.84
2019-03-03T22:59:08.312Z,96581.14
2019-03-03T23:01:09.910Z,96569.84
2019-03-03T23:03:11.505Z,96573.88
2019-03-03T23:05:13.101Z,96574.56
2019-03-03T23:07:14.684Z,96563.73
2019-03-03T23:09:16.287Z,96570.68
2019-03-03T23:11:19.432Z,96562.73
2019-03-03T23:13:21.025Z,96567.16
2019-03-03T23:15:22.612Z,96560.06
2019-03-03T23:17:24.238Z,96558.86
2019-03-03T23:19:25.844Z,96558.53
2019-03-03T23:21:27.498Z,96569.27
2019-03-03T23:23:29.122Z,96574.76
2019-03-03T23:25:30.734Z,96568.42
2019-03-03T23:27:32.333Z,96559.12
2019-03-03T23:29:33.941Z,96551.04
2019-03-03T23:31:35.561Z,96552.43
2019-03-03T23:33:37.158Z,96543.60
2019-03-03T23:35:38.754Z,96536.08
2019-03-03T23:37:40.346Z,96537.56
2019-03-03T23:39:41.938Z,96539.84
2019-03-03T23:41:43.534Z,96539.86
2019-03-03T23:43:45.158Z,96542.86
2019-03-03T23:45:46.763Z,96538.23
2019-03-03T23:47:48.403Z,96525.45
2019-03-03T23:49:50.002Z,96518.89
2019-03-03T23:51:52.172Z,96518.84
2019-03-03T23:53:53.812Z,96518.98
2019-03-03T23:55:55.406Z,96508.48
2019-03-03T23:57:57.044Z,96500.22
2019-03-03T23:59:58.645Z,96499.89
